sensor_id;sensor_type;location;lat;lon;timestamp;P1;durP1;ratioP1;P2;durP2;ratioP2
12852;SDS011;6495;51.808;7.478;2023-07-20T00:01:35;5.47;;;3.65;;
12852;SDS011;6495;51.808;7.478;2023-07-20T00:04:04;4.45;;;3.67;;
12852;SDS011;6495;51.808;7.478;2023-07-20T00:06:33;5.85;;;3.83;;
12852;SDS011;6495;51.808;7.478;2023-07-20T00:09:02;5.35;;;3.53;;
12852;SDS011;6495;51.808;7.478;2023-07-20T00:11:31;4.07;;;3.45;;
12852;SDS011;6495;51.808;7.478;2023-07-20T00:14:03;6.78;;;4.10;;
12852;SDS011;6495;51.808;7.478;2023-07-20T00:16:32;5.25;;;3.53;;
12852;SDS011;6495;51.808;7.478;2023-07-20T00:19:00;5.68;;;3.85;;
12852;SDS011;6495;51.808;7.478;2023-07-20T00:21:29;4.70;;;3.80;;
12852;SDS011;6495;51.808;7.478;2023-07-20T00:23:58;6.95;;;3.70;;
12852;SDS011;6495;51.808;7.478;2023-07-20T00:26:27;6.43;;;3.28;;
12852;SDS011;6495;51.808;7.478;2023-07-20T00:28:56;6.32;;;3.65;;
12852;SDS011;6495;51.808;7.478;2023-07-20T00:31:24;6.15;;;3.75;;
12852;SDS011;6495;51.808;7.478;2023-07-20T00:33:53;6.22;;;3.83;;
12852;SDS011;6495;51.808;7.478;2023-07-20T00:36:21;4.53;;;3.72;;
12852;SDS011;6495;51.808;7.478;2023-07-20T00:38:50;7.63;;;3.92;;
12852;SDS011;6495;51.808;7.478;2023-07-20T00:41:18;4.57;;;3.90;;
12852;SDS011;6495;51.808;7.478;2023-07-20T00:43:50;3.70;;;3.40;;
12852;SDS011;6495;51.808;7.478;2023-07-20T00:46:20;4.90;;;3.80;;
12852;SDS011;6495;51.808;7.478;2023-07-20T00:48:51;4.47;;;3.38;;
12852;SDS011;6495;51.808;7.478;2023-07-20T00:51:21;5.80;;;3.88;;
12852;SDS011;6495;51.808;7.478;2023-07-20T00:53:52;4.68;;;3.40;;
12852;SDS011;6495;51.808;7.478;2023-07-20T00:56:21;4.88;;;3.53;;
12852;SDS011;6495;51.808;7.478;2023-07-20T00:58:52;4.63;;;3.83;;
12852;SDS011;6495;51.808;7.478;2023-07-20T01:01:21;4.93;;;3.80;;
12852;SDS011;6495;51.808;7.478;2023-07-20T01:03:50;5.75;;;3.75;;
12852;SDS011;6495;51.808;7.478;2023-07-20T01:06:22;5.60;;;3.72;;
12852;SDS011;6495;51.808;7.478;2023-07-20T01:09:04;4.80;;;3.72;;
12852;SDS011;6495;51.808;7.478;2023-07-20T01:11:43;8.20;;;3.90;;
12852;SDS011;6495;51.808;7.478;2023-07-20T01:14:22;5.70;;;3.75;;
12852;SDS011;6495;51.808;7.478;2023-07-20T01:16:51;5.47;;;3.80;;
12852;SDS011;6495;51.808;7.478;2023-07-20T01:19:20;5.97;;;4.05;;
12852;SDS011;6495;51.808;7.478;2023-07-20T01:21:51;7.20;;;3.90;;
12852;SDS011;6495;51.808;7.478;2023-07-20T01:31:21;6.68;;;4.40;;
12852;SDS011;6495;51.808;7.478;2023-07-20T01:33:52;4.20;;;3.80;;
12852;SDS011;6495;51.808;7.478;2023-07-20T01:36:26;7.00;;;3.97;;
12852;SDS011;6495;51.808;7.478;2023-07-20T01:39:00;5.53;;;4.50;;
12852;SDS011;6495;51.808;7.478;2023-07-20T01:41:31;7.53;;;4.35;;
12852;SDS011;6495;51.808;7.478;2023-07-20T01:44:03;5.80;;;4.47;;
12852;SDS011;6495;51.808;7.478;2023-07-20T01:46:33;6.20;;;4.28;;
12852;SDS011;6495;51.808;7.478;2023-07-20T01:49:02;7.88;;;4.45;;
12852;SDS011;6495;51.808;7.478;2023-07-20T01:51:31;6.07;;;4.65;;
12852;SDS011;6495;51.808;7.478;2023-07-20T01:53:59;5.57;;;4.60;;
12852;SDS011;6495;51.808;7.478;2023-07-20T01:56:27;5.38;;;4.72;;
12852;SDS011;6495;51.808;7.478;2023-07-20T01:58:55;7.18;;;4.63;;
12852;SDS011;6495;51.808;7.478;2023-07-20T02:01:25;5.97;;;5.07;;
12852;SDS011;6495;51.808;7.478;2023-07-20T02:03:56;7.40;;;5.13;;
12852;SDS011;6495;51.808;7.478;2023-07-20T02:06:25;10.63;;;4.85;;
12852;SDS011;6495;51.808;7.478;2023-07-20T02:08:54;13.93;;;4.78;;
12852;SDS011;6495;51.808;7.478;2023-07-20T02:11:23;9.10;;;4.93;;
12852;SDS011;6495;51.808;7.478;2023-07-20T02:13:51;8.00;;;4.43;;
12852;SDS011;6495;51.808;7.478;2023-07-20T02:16:21;5.32;;;4.63;;
12852;SDS011;6495;51.808;7.478;2023-07-20T02:18:50;11.63;;;5.25;;
12852;SDS011;6495;51.808;7.478;2023-07-20T02:21:21;8.77;;;4.90;;
12852;SDS011;6495;51.808;7.478;2023-07-20T02:23:49;6.13;;;4.78;;
12852;SDS011;6495;51.808;7.478;2023-07-20T02:26:17;7.38;;;5.20;;
12852;SDS011;6495;51.808;7.478;2023-07-20T02:28:46;6.45;;;5.40;;
12852;SDS011;6495;51.808;7.478;2023-07-20T02:31:15;8.93;;;5.15;;
12852;SDS011;6495;51.808;7.478;2023-07-20T02:33:44;6.65;;;5.00;;
12852;SDS011;6495;51.808;7.478;2023-07-20T02:36:12;7.10;;;5.10;;
12852;SDS011;6495;51.808;7.478;2023-07-20T02:38:42;7.05;;;5.30;;
12852;SDS011;6495;51.808;7.478;2023-07-20T02:41:10;6.88;;;5.32;;
12852;SDS011;6495;51.808;7.478;2023-07-20T02:43:39;6.15;;;5.28;;
12852;SDS011;6495;51.808;7.478;2023-07-20T02:46:08;9.90;;;5.93;;
12852;SDS011;6495;51.808;7.478;2023-07-20T02:48:37;7.03;;;5.20;;
12852;SDS011;6495;51.808;7.478;2023-07-20T02:51:05;6.72;;;5.38;;
12852;SDS011;6495;51.808;7.478;2023-07-20T02:53:35;7.93;;;5.78;;
12852;SDS011;6495;51.808;7.478;2023-07-20T02:56:06;8.55;;;5.53;;
12852;SDS011;6495;51.808;7.478;2023-07-20T02:58:35;11.57;;;5.75;;
12852;SDS011;6495;51.808;7.478;2023-07-20T03:01:12;7.30;;;5.25;;
12852;SDS011;6495;51.808;7.478;2023-07-20T03:03:42;8.60;;;5.43;;
12852;SDS011;6495;51.808;7.478;2023-07-20T03:06:14;8.90;;;5.40;;
12852;SDS011;6495;51.808;7.478;2023-07-20T03:08:43;9.52;;;6.03;;
12852;SDS011;6495;51.808;7.478;2023-07-20T03:11:15;7.43;;;5.47;;
12852;SDS011;6495;51.808;7.478;2023-07-20T03:13:45;6.10;;;5.25;;
12852;SDS011;6495;51.808;7.478;2023-07-20T03:16:17;6.70;;;5.47;;
12852;SDS011;6495;51.808;7.478;2023-07-20T03:18:49;9.32;;;6.18;;
12852;SDS011;6495;51.808;7.478;2023-07-20T03:21:17;9.18;;;5.70;;
12852;SDS011;6495;51.808;7.478;2023-07-20T03:23:46;8.98;;;6.05;;
12852;SDS011;6495;51.808;7.478;2023-07-20T03:26:15;7.50;;;5.43;;
12852;SDS011;6495;51.808;7.478;2023-07-20T03:28:44;7.97;;;5.75;;
12852;SDS011;6495;51.808;7.478;2023-07-20T03:31:12;9.77;;;5.82;;
12852;SDS011;6495;51.808;7.478;2023-07-20T03:33:42;12.30;;;5.90;;
12852;SDS011;6495;51.808;7.478;2023-07-20T03:36:10;6.07;;;4.80;;
12852;SDS011;6495;51.808;7.478;2023-07-20T03:38:38;6.60;;;4.60;;
12852;SDS011;6495;51.808;7.478;2023-07-20T03:41:07;7.90;;;4.95;;
12852;SDS011;6495;51.808;7.478;2023-07-20T03:43:37;6.63;;;4.88;;
12852;SDS011;6495;51.808;7.478;2023-07-20T03:46:05;6.82;;;4.32;;
12852;SDS011;6495;51.808;7.478;2023-07-20T03:48:34;4.03;;;3.63;;
12852;SDS011;6495;51.808;7.478;2023-07-20T03:51:03;11.23;;;3.65;;
12852;SDS011;6495;51.808;7.478;2023-07-20T03:53:31;4.57;;;3.75;;
12852;SDS011;6495;51.808;7.478;2023-07-20T03:56:00;4.70;;;3.65;;
12852;SDS011;6495;51.808;7.478;2023-07-20T03:58:28;4.65;;;3.40;;
12852;SDS011;6495;51.808;7.478;2023-07-20T04:00:59;3.72;;;3.28;;
12852;SDS011;6495;51.808;7.478;2023-07-20T04:03:27;5.38;;;3.45;;
12852;SDS011;6495;51.808;7.478;2023-07-20T04:05:59;4.38;;;3.55;;
12852;SDS011;6495;51.808;7.478;2023-07-20T04:08:52;3.67;;;3.38;;
12852;SDS011;6495;51.808;7.478;2023-07-20T04:11:20;5.20;;;3.58;;
12852;SDS011;6495;51.808;7.478;2023-07-20T04:13:48;3.83;;;3.25;;
12852;SDS011;6495;51.808;7.478;2023-07-20T04:16:18;5.95;;;4.22;;
12852;SDS011;6495;51.808;7.478;2023-07-20T04:18:47;4.20;;;3.25;;
12852;SDS011;6495;51.808;7.478;2023-07-20T04:21:15;4.20;;;3.80;;
12852;SDS011;6495;51.808;7.478;2023-07-20T04:23:44;5.65;;;4.20;;
12852;SDS011;6495;51.808;7.478;2023-07-20T04:26:13;6.40;;;3.55;;
12852;SDS011;6495;51.808;7.478;2023-07-20T04:28:41;8.73;;;4.15;;
12852;SDS011;6495;51.808;7.478;2023-07-20T04:35:48;5.20;;;3.53;;
12852;SDS011;6495;51.808;7.478;2023-07-20T04:38:32;5.00;;;3.30;;
12852;SDS011;6495;51.808;7.478;2023-07-20T04:41:12;6.40;;;3.95;;
12852;SDS011;6495;51.808;7.478;2023-07-20T04:43:44;5.47;;;3.78;;
12852;SDS011;6495;51.808;7.478;2023-07-20T04:46:19;7.22;;;3.78;;
12852;SDS011;6495;51.808;7.478;2023-07-20T04:48:49;4.90;;;3.70;;
12852;SDS011;6495;51.808;7.478;2023-07-20T04:51:20;5.63;;;3.22;;
12852;SDS011;6495;51.808;7.478;2023-07-20T04:53:50;5.47;;;3.75;;
12852;SDS011;6495;51.808;7.478;2023-07-20T04:56:21;4.95;;;3.90;;
12852;SDS011;6495;51.808;7.478;2023-07-20T04:58:52;4.78;;;3.35;;
12852;SDS011;6495;51.808;7.478;2023-07-20T05:01:21;4.20;;;3.80;;
12852;SDS011;6495;51.808;7.478;2023-07-20T05:03:52;5.32;;;3.20;;
12852;SDS011;6495;51.808;7.478;2023-07-20T05:06:23;5.13;;;4.00;;
12852;SDS011;6495;51.808;7.478;2023-07-20T05:08:52;5.97;;;3.78;;
12852;SDS011;6495;51.808;7.478;2023-07-20T05:11:21;6.65;;;3.80;;
12852;SDS011;6495;51.808;7.478;2023-07-20T05:13:50;4.20;;;3.72;;
12852;SDS011;6495;51.808;7.478;2023-07-20T05:16:18;3.80;;;3.28;;
12852;SDS011;6495;51.808;7.478;2023-07-20T05:18:47;5.35;;;3.25;;
12852;SDS011;6495;51.808;7.478;2023-07-20T05:21:16;4.80;;;3.50;;
12852;SDS011;6495;51.808;7.478;2023-07-20T05:23:46;3.95;;;3.33;;
12852;SDS011;6495;51.808;7.478;2023-07-20T05:26:15;4.20;;;3.60;;
12852;SDS011;6495;51.808;7.478;2023-07-20T05:28:43;4.47;;;3.65;;
12852;SDS011;6495;51.808;7.478;2023-07-20T05:31:12;3.75;;;3.30;;
12852;SDS011;6495;51.808;7.478;2023-07-20T05:33:42;4.30;;;3.53;;
12852;SDS011;6495;51.808;7.478;2023-07-20T05:36:13;4.13;;;3.72;;
12852;SDS011;6495;51.808;7.478;2023-07-20T05:38:41;4.03;;;3.63;;
12852;SDS011;6495;51.808;7.478;2023-07-20T05:41:10;5.95;;;3.60;;
12852;SDS011;6495;51.808;7.478;2023-07-20T05:43:41;4.10;;;3.38;;
12852;SDS011;6495;51.808;7.478;2023-07-20T05:46:09;4.15;;;3.13;;
12852;SDS011;6495;51.808;7.478;2023-07-20T05:48:37;4.60;;;3.47;;
12852;SDS011;6495;51.808;7.478;2023-07-20T05:51:06;3.97;;;3.13;;
12852;SDS011;6495;51.808;7.478;2023-07-20T05:53:35;6.57;;;3.17;;
12852;SDS011;6495;51.808;7.478;2023-07-20T05:56:04;5.53;;;3.53;;
12852;SDS011;6495;51.808;7.478;2023-07-20T05:58:38;5.07;;;3.25;;
12852;SDS011;6495;51.808;7.478;2023-07-20T06:01:06;6.38;;;3.60;;
12852;SDS011;6495;51.808;7.478;2023-07-20T06:03:34;3.22;;;2.88;;
12852;SDS011;6495;51.808;7.478;2023-07-20T06:06:04;4.30;;;3.05;;
12852;SDS011;6495;51.808;7.478;2023-07-20T06:08:32;5.88;;;2.70;;
12852;SDS011;6495;51.808;7.478;2023-07-20T06:11:01;3.60;;;2.60;;
12852;SDS011;6495;51.808;7.478;2023-07-20T06:13:31;3.47;;;2.35;;
12852;SDS011;6495;51.808;7.478;2023-07-20T06:16:01;2.85;;;2.60;;
12852;SDS011;6495;51.808;7.478;2023-07-20T06:18:30;2.95;;;2.65;;
12852;SDS011;6495;51.808;7.478;2023-07-20T06:20:58;4.07;;;2.25;;
12852;SDS011;6495;51.808;7.478;2023-07-20T06:23:26;2.10;;;1.90;;
12852;SDS011;6495;51.808;7.478;2023-07-20T06:25:55;2.38;;;2.15;;
12852;SDS011;6495;51.808;7.478;2023-07-20T06:28:25;4.38;;;2.30;;
12852;SDS011;6495;51.808;7.478;2023-07-20T06:30:58;3.13;;;2.55;;
12852;SDS011;6495;51.808;7.478;2023-07-20T06:33:31;2.65;;;2.30;;
12852;SDS011;6495;51.808;7.478;2023-07-20T06:36:01;2.65;;;2.00;;
12852;SDS011;6495;51.808;7.478;2023-07-20T06:38:29;2.33;;;1.90;;
12852;SDS011;6495;51.808;7.478;2023-07-20T06:40:58;2.35;;;2.00;;
12852;SDS011;6495;51.808;7.478;2023-07-20T06:43:29;2.45;;;1.83;;
12852;SDS011;6495;51.808;7.478;2023-07-20T06:46:01;2.10;;;1.90;;
12852;SDS011;6495;51.808;7.478;2023-07-20T06:48:31;2.38;;;1.90;;
12852;SDS011;6495;51.808;7.478;2023-07-20T06:51:19;2.50;;;1.80;;
12852;SDS011;6495;51.808;7.478;2023-07-20T06:53:50;1.70;;;1.60;;
12852;SDS011;6495;51.808;7.478;2023-07-20T06:56:18;3.47;;;1.88;;
12852;SDS011;6495;51.808;7.478;2023-07-20T06:58:51;1.48;;;1.38;;
12852;SDS011;6495;51.808;7.478;2023-07-20T07:01:20;1.50;;;1.40;;
12852;SDS011;6495;51.808;7.478;2023-07-20T07:03:49;1.45;;;1.35;;
12852;SDS011;6495;51.808;7.478;2023-07-20T07:06:21;1.77;;;1.50;;
12852;SDS011;6495;51.808;7.478;2023-07-20T07:08:51;2.53;;;1.70;;
12852;SDS011;6495;51.808;7.478;2023-07-20T07:11:23;1.85;;;1.60;;
12852;SDS011;6495;51.808;7.478;2023-07-20T07:13:51;1.50;;;1.40;;
12852;SDS011;6495;51.808;7.478;2023-07-20T07:16:24;1.77;;;1.60;;
12852;SDS011;6495;51.808;7.478;2023-07-20T07:18:53;1.85;;;1.75;;
12852;SDS011;6495;51.808;7.478;2023-07-20T07:21:25;2.08;;;1.65;;
12852;SDS011;6495;51.808;7.478;2023-07-20T07:23:54;2.45;;;1.50;;
12852;SDS011;6495;51.808;7.478;2023-07-20T07:26:23;1.63;;;1.52;;
12852;SDS011;6495;51.808;7.478;2023-07-20T07:28:52;2.15;;;1.38;;
12852;SDS011;6495;51.808;7.478;2023-07-20T07:31:20;1.30;;;1.20;;
12852;SDS011;6495;51.808;7.478;2023-07-20T07:33:51;1.48;;;1.30;;
12852;SDS011;6495;51.808;7.478;2023-07-20T07:36:19;1.73;;;1.50;;
12852;SDS011;6495;51.808;7.478;2023-07-20T07:38:47;3.25;;;1.63;;
12852;SDS011;6495;51.808;7.478;2023-07-20T07:41:36;3.28;;;1.98;;
12852;SDS011;6495;51.808;7.478;2023-07-20T07:44:05;2.55;;;1.30;;
12852;SDS011;6495;51.808;7.478;2023-07-20T07:46:33;1.10;;;1.10;;
12852;SDS011;6495;51.808;7.478;2023-07-20T07:49:03;1.40;;;1.10;;
12852;SDS011;6495;51.808;7.478;2023-07-20T07:51:31;1.50;;;1.40;;
12852;SDS011;6495;51.808;7.478;2023-07-20T07:53:59;1.65;;;1.35;;
12852;SDS011;6495;51.808;7.478;2023-07-20T07:56:27;2.83;;;1.50;;
12852;SDS011;6495;51.808;7.478;2023-07-20T07:58:55;1.83;;;1.42;;
12852;SDS011;6495;51.808;7.478;2023-07-20T08:01:24;2.83;;;1.20;;
12852;SDS011;6495;51.808;7.478;2023-07-20T08:03:54;1.65;;;1.38;;
12852;SDS011;6495;51.808;7.478;2023-07-20T08:06:23;1.90;;;1.70;;
12852;SDS011;6495;51.808;7.478;2023-07-20T08:08:52;1.40;;;1.30;;
12852;SDS011;6495;51.808;7.478;2023-07-20T08:11:20;3.17;;;1.45;;
12852;SDS011;6495;51.808;7.478;2023-07-20T08:13:48;0.93;;;0.93;;
12852;SDS011;6495;51.808;7.478;2023-07-20T08:16:17;2.53;;;0.90;;
12852;SDS011;6495;51.808;7.478;2023-07-20T08:18:45;1.40;;;1.10;;
12852;SDS011;6495;51.808;7.478;2023-07-20T08:21:13;1.02;;;1.00;;
12852;SDS011;6495;51.808;7.478;2023-07-20T08:23:43;0.90;;;0.90;;
12852;SDS011;6495;51.808;7.478;2023-07-20T08:26:11;1.10;;;0.95;;
12852;SDS011;6495;51.808;7.478;2023-07-20T08:28:39;1.05;;;0.95;;
12852;SDS011;6495;51.808;7.478;2023-07-20T08:31:10;1.23;;;1.10;;
12852;SDS011;6495;51.808;7.478;2023-07-20T08:33:38;1.02;;;0.80;;
12852;SDS011;6495;51.808;7.478;2023-07-20T08:36:06;1.00;;;0.90;;
12852;SDS011;6495;51.808;7.478;2023-07-20T08:38:37;1.92;;;1.13;;
12852;SDS011;6495;51.808;7.478;2023-07-20T08:41:07;1.00;;;1.00;;
12852;SDS011;6495;51.808;7.478;2023-07-20T08:43:36;2.35;;;1.20;;
12852;SDS011;6495;51.808;7.478;2023-07-20T08:46:10;1.25;;;1.08;;
12852;SDS011;6495;51.808;7.478;2023-07-20T08:48:41;1.10;;;1.00;;
12852;SDS011;6495;51.808;7.478;2023-07-20T08:51:10;0.90;;;0.90;;
12852;SDS011;6495;51.808;7.478;2023-07-20T08:53:40;0.90;;;0.90;;
12852;SDS011;6495;51.808;7.478;2023-07-20T08:56:10;1.05;;;0.90;;
12852;SDS011;6495;51.808;7.478;2023-07-20T08:58:42;1.08;;;0.90;;
12852;SDS011;6495;51.808;7.478;2023-07-20T09:01:11;1.10;;;1.00;;
12852;SDS011;6495;51.808;7.478;2023-07-20T09:03:41;0.95;;;0.95;;
12852;SDS011;6495;51.808;7.478;2023-07-20T09:06:12;1.23;;;0.75;;
12852;SDS011;6495;51.808;7.478;2023-07-20T09:08:41;0.98;;;0.77;;
12852;SDS011;6495;51.808;7.478;2023-07-20T09:11:11;0.90;;;0.90;;
12852;SDS011;6495;51.808;7.478;2023-07-20T09:13:41;0.98;;;0.80;;
12852;SDS011;6495;51.808;7.478;2023-07-20T09:16:10;1.17;;;0.93;;
12852;SDS011;6495;51.808;7.478;2023-07-20T09:18:42;1.50;;;1.00;;
12852;SDS011;6495;51.808;7.478;2023-07-20T09:21:10;0.82;;;0.80;;
12852;SDS011;6495;51.808;7.478;2023-07-20T09:23:38;0.80;;;0.80;;
12852;SDS011;6495;51.808;7.478;2023-07-20T09:26:11;0.85;;;0.85;;
12852;SDS011;6495;51.808;7.478;2023-07-20T09:28:42;0.90;;;0.75;;
12852;SDS011;6495;51.808;7.478;2023-07-20T09:31:16;0.95;;;0.73;;
12852;SDS011;6495;51.808;7.478;2023-07-20T09:33:47;0.80;;;0.80;;
12852;SDS011;6495;51.808;7.478;2023-07-20T09:36:21;0.65;;;0.65;;
12852;SDS011;6495;51.808;7.478;2023-07-20T09:39:10;0.73;;;0.70;;
12852;SDS011;6495;51.808;7.478;2023-07-20T09:41:41;1.20;;;1.10;;
12852;SDS011;6495;51.808;7.478;2023-07-20T09:44:13;1.00;;;0.93;;
12852;SDS011;6495;51.808;7.478;2023-07-20T09:46:46;0.80;;;0.80;;
12852;SDS011;6495;51.808;7.478;2023-07-20T09:49:18;1.45;;;0.73;;
12852;SDS011;6495;51.808;7.478;2023-07-20T09:51:50;1.20;;;0.82;;
12852;SDS011;6495;51.808;7.478;2023-07-20T09:54:22;1.55;;;0.90;;
12852;SDS011;6495;51.808;7.478;2023-07-20T09:56:55;1.13;;;0.90;;
12852;SDS011;6495;51.808;7.478;2023-07-20T09:59:24;0.80;;;0.80;;
12852;SDS011;6495;51.808;7.478;2023-07-20T10:01:53;0.98;;;0.80;;
12852;SDS011;6495;51.808;7.478;2023-07-20T10:04:27;1.42;;;1.00;;
12852;SDS011;6495;51.808;7.478;2023-07-20T10:06:58;1.23;;;1.00;;
12852;SDS011;6495;51.808;7.478;2023-07-20T10:09:34;1.33;;;0.73;;
12852;SDS011;6495;51.808;7.478;2023-07-20T10:12:08;0.80;;;0.80;;
12852;SDS011;6495;51.808;7.478;2023-07-20T10:14:44;0.90;;;0.75;;
12852;SDS011;6495;51.808;7.478;2023-07-20T10:17:26;1.20;;;0.73;;
12852;SDS011;6495;51.808;7.478;2023-07-20T10:19:54;0.80;;;0.77;;
12852;SDS011;6495;51.808;7.478;2023-07-20T10:22:30;1.63;;;1.00;;
12852;SDS011;6495;51.808;7.478;2023-07-20T10:25:08;2.13;;;0.85;;
12852;SDS011;6495;51.808;7.478;2023-07-20T10:27:41;1.52;;;0.77;;
12852;SDS011;6495;51.808;7.478;2023-07-20T10:30:10;1.17;;;0.93;;
12852;SDS011;6495;51.808;7.478;2023-07-20T10:32:39;1.05;;;0.75;;
12852;SDS011;6495;51.808;7.478;2023-07-20T10:35:14;1.02;;;0.90;;
12852;SDS011;6495;51.808;7.478;2023-07-20T10:37:47;0.73;;;0.73;;
12852;SDS011;6495;51.808;7.478;2023-07-20T10:40:25;0.80;;;0.70;;
12852;SDS011;6495;51.808;7.478;2023-07-20T10:43:04;0.70;;;0.70;;
12852;SDS011;6495;51.808;7.478;2023-07-20T10:45:42;0.85;;;0.80;;
12852;SDS011;6495;51.808;7.478;2023-07-20T10:48:17;0.88;;;0.88;;
12852;SDS011;6495;51.808;7.478;2023-07-20T10:53:40;1.10;;;1.00;;
12852;SDS011;6495;51.808;7.478;2023-07-20T10:56:11;0.73;;;0.70;;
12852;SDS011;6495;51.808;7.478;2023-07-20T10:58:43;2.05;;;0.90;;
12852;SDS011;6495;51.808;7.478;2023-07-20T11:01:13;2.03;;;0.90;;
12852;SDS011;6495;51.808;7.478;2023-07-20T11:03:48;0.90;;;0.90;;
12852;SDS011;6495;51.808;7.478;2023-07-20T11:06:29;1.63;;;0.85;;
12852;SDS011;6495;51.808;7.478;2023-07-20T11:09:05;1.10;;;0.88;;
12852;SDS011;6495;51.808;7.478;2023-07-20T11:11:38;1.90;;;0.88;;
12852;SDS011;6495;51.808;7.478;2023-07-20T11:14:09;0.73;;;0.73;;
12852;SDS011;6495;51.808;7.478;2023-07-20T11:16:48;2.45;;;0.70;;
12852;SDS011;6495;51.808;7.478;2023-07-20T11:19:19;0.73;;;0.73;;
12852;SDS011;6495;51.808;7.478;2023-07-20T11:21:53;0.60;;;0.60;;
12852;SDS011;6495;51.808;7.478;2023-07-20T11:24:29;0.60;;;0.60;;
12852;SDS011;6495;51.808;7.478;2023-07-20T11:26:59;0.70;;;0.70;;
12852;SDS011;6495;51.808;7.478;2023-07-20T11:29:30;0.70;;;0.70;;
12852;SDS011;6495;51.808;7.478;2023-07-20T11:32:00;0.82;;;0.80;;
12852;SDS011;6495;51.808;7.478;2023-07-20T11:34:31;0.68;;;0.68;;
12852;SDS011;6495;51.808;7.478;2023-07-20T11:37:01;0.82;;;0.82;;
12852;SDS011;6495;51.808;7.478;2023-07-20T11:39:33;1.00;;;0.90;;
12852;SDS011;6495;51.808;7.478;2023-07-20T11:42:02;0.70;;;0.70;;
12852;SDS011;6495;51.808;7.478;2023-07-20T11:44:35;0.90;;;0.80;;
12852;SDS011;6495;51.808;7.478;2023-07-20T11:47:04;1.30;;;0.80;;
12852;SDS011;6495;51.808;7.478;2023-07-20T11:49:35;0.73;;;0.73;;
12852;SDS011;6495;51.808;7.478;2023-07-20T11:52:05;1.88;;;0.70;;
12852;SDS011;6495;51.808;7.478;2023-07-20T11:54:36;0.90;;;0.80;;
12852;SDS011;6495;51.808;7.478;2023-07-20T11:57:15;1.02;;;0.80;;
12852;SDS011;6495;51.808;7.478;2023-07-20T11:59:53;0.70;;;0.70;;
12852;SDS011;6495;51.808;7.478;2023-07-20T12:02:23;0.70;;;0.70;;
12852;SDS011;6495;51.808;7.478;2023-07-20T12:04:54;0.80;;;0.80;;
12852;SDS011;6495;51.808;7.478;2023-07-20T12:07:25;1.60;;;0.80;;
12852;SDS011;6495;51.808;7.478;2023-07-20T12:10:05;1.10;;;1.02;;
12852;SDS011;6495;51.808;7.478;2023-07-20T12:12:37;0.80;;;0.80;;
12852;SDS011;6495;51.808;7.478;2023-07-20T12:15:15;0.70;;;0.70;;
12852;SDS011;6495;51.808;7.478;2023-07-20T12:17:45;0.70;;;0.70;;
12852;SDS011;6495;51.808;7.478;2023-07-20T12:20:24;1.50;;;0.80;;
12852;SDS011;6495;51.808;7.478;2023-07-20T12:22:56;1.75;;;0.75;;
12852;SDS011;6495;51.808;7.478;2023-07-20T12:25:39;0.60;;;0.60;;
12852;SDS011;6495;51.808;7.478;2023-07-20T12:28:11;0.60;;;0.60;;
12852;SDS011;6495;51.808;7.478;2023-07-20T12:30:43;1.45;;;0.90;;
12852;SDS011;6495;51.808;7.478;2023-07-20T12:33:13;1.55;;;0.80;;
12852;SDS011;6495;51.808;7.478;2023-07-20T12:35:42;1.17;;;0.70;;
12852;SDS011;6495;51.808;7.478;2023-07-20T12:38:11;1.02;;;0.77;;
12852;SDS011;6495;51.808;7.478;2023-07-20T12:40:39;0.80;;;0.80;;
12852;SDS011;6495;51.808;7.478;2023-07-20T12:43:08;0.70;;;0.70;;
12852;SDS011;6495;51.808;7.478;2023-07-20T12:45:37;0.77;;;0.77;;
12852;SDS011;6495;51.808;7.478;2023-07-20T12:48:06;0.63;;;0.63;;
12852;SDS011;6495;51.808;7.478;2023-07-20T12:50:35;0.60;;;0.60;;
12852;SDS011;6495;51.808;7.478;2023-07-20T12:53:04;0.90;;;0.70;;
12852;SDS011;6495;51.808;7.478;2023-07-20T12:55:32;0.63;;;0.63;;
12852;SDS011;6495;51.808;7.478;2023-07-20T12:58:01;0.43;;;0.43;;
12852;SDS011;6495;51.808;7.478;2023-07-20T13:00:30;0.52;;;0.52;;
12852;SDS011;6495;51.808;7.478;2023-07-20T13:02:59;0.63;;;0.63;;
12852;SDS011;6495;51.808;7.478;2023-07-20T13:05:36;0.60;;;0.60;;
12852;SDS011;6495;51.808;7.478;2023-07-20T13:08:07;1.25;;;0.60;;
12852;SDS011;6495;51.808;7.478;2023-07-20T13:10:38;1.02;;;0.80;;
12852;SDS011;6495;51.808;7.478;2023-07-20T13:13:07;0.88;;;0.60;;
12852;SDS011;6495;51.808;7.478;2023-07-20T13:15:40;0.57;;;0.57;;
12852;SDS011;6495;51.808;7.478;2023-07-20T13:18:11;0.80;;;0.80;;
12852;SDS011;6495;51.808;7.478;2023-07-20T13:20:41;0.98;;;0.60;;
12852;SDS011;6495;51.808;7.478;2023-07-20T13:23:09;0.75;;;0.75;;
12852;SDS011;6495;51.808;7.478;2023-07-20T13:25:38;0.60;;;0.60;;
12852;SDS011;6495;51.808;7.478;2023-07-20T13:28:06;0.60;;;0.60;;
12852;SDS011;6495;51.808;7.478;2023-07-20T13:30:35;0.68;;;0.68;;
12852;SDS011;6495;51.808;7.478;2023-07-20T13:33:06;0.55;;;0.55;;
12852;SDS011;6495;51.808;7.478;2023-07-20T13:35:38;0.70;;;0.68;;
12852;SDS011;6495;51.808;7.478;2023-07-20T13:38:11;0.80;;;0.80;;
12852;SDS011;6495;51.808;7.478;2023-07-20T13:40:39;0.80;;;0.68;;
12852;SDS011;6495;51.808;7.478;2023-07-20T13:43:08;0.82;;;0.77;;
12852;SDS011;6495;51.808;7.478;2023-07-20T13:45:38;0.65;;;0.63;;
12852;SDS011;6495;51.808;7.478;2023-07-20T13:48:07;1.45;;;0.60;;
12852;SDS011;6495;51.808;7.478;2023-07-20T13:50:35;0.70;;;0.70;;
12852;SDS011;6495;51.808;7.478;2023-07-20T13:53:09;0.63;;;0.63;;
12852;SDS011;6495;51.808;7.478;2023-07-20T13:55:41;0.50;;;0.50;;
12852;SDS011;6495;51.808;7.478;2023-07-20T13:58:12;0.60;;;0.60;;
12852;SDS011;6495;51.808;7.478;2023-07-20T14:00:40;0.70;;;0.68;;
12852;SDS011;6495;51.808;7.478;2023-07-20T14:03:09;0.52;;;0.52;;
12852;SDS011;6495;51.808;7.478;2023-07-20T14:05:40;0.65;;;0.65;;
12852;SDS011;6495;51.808;7.478;2023-07-20T14:08:14;0.60;;;0.60;;
12852;SDS011;6495;51.808;7.478;2023-07-20T14:10:42;0.50;;;0.50;;
12852;SDS011;6495;51.808;7.478;2023-07-20T14:13:13;0.60;;;0.60;;
12852;SDS011;6495;51.808;7.478;2023-07-20T14:15:42;1.65;;;0.50;;
12852;SDS011;6495;51.808;7.478;2023-07-20T14:18:10;0.60;;;0.60;;
12852;SDS011;6495;51.808;7.478;2023-07-20T14:20:38;1.27;;;0.73;;
12852;SDS011;6495;51.808;7.478;2023-07-20T14:23:07;0.63;;;0.63;;
12852;SDS011;6495;51.808;7.478;2023-07-20T14:25:37;0.68;;;0.68;;
12852;SDS011;6495;51.808;7.478;2023-07-20T14:28:05;1.75;;;0.63;;
12852;SDS011;6495;51.808;7.478;2023-07-20T14:30:33;0.80;;;0.80;;
12852;SDS011;6495;51.808;7.478;2023-07-20T14:33:02;0.80;;;0.80;;
12852;SDS011;6495;51.808;7.478;2023-07-20T14:35:30;1.35;;;0.80;;
12852;SDS011;6495;51.808;7.478;2023-07-20T14:37:59;0.80;;;0.73;;
12852;SDS011;6495;51.808;7.478;2023-07-20T14:40:28;0.68;;;0.68;;
12852;SDS011;6495;51.808;7.478;2023-07-20T14:42:58;0.50;;;0.50;;
12852;SDS011;6495;51.808;7.478;2023-07-20T14:45:27;0.57;;;0.57;;
12852;SDS011;6495;51.808;7.478;2023-07-20T14:47:55;0.93;;;0.70;;
12852;SDS011;6495;51.808;7.478;2023-07-20T14:50:23;0.60;;;0.60;;
12852;SDS011;6495;51.808;7.478;2023-07-20T14:52:52;1.08;;;0.77;;
12852;SDS011;6495;51.808;7.478;2023-07-20T14:55:21;0.70;;;0.70;;
12852;SDS011;6495;51.808;7.478;2023-07-20T14:57:49;1.30;;;0.70;;
12852;SDS011;6495;51.808;7.478;2023-07-20T15:00:19;0.98;;;0.80;;
12852;SDS011;6495;51.808;7.478;2023-07-20T15:02:49;2.28;;;0.80;;
12852;SDS011;6495;51.808;7.478;2023-07-20T15:05:21;0.50;;;0.50;;
12852;SDS011;6495;51.808;7.478;2023-07-20T15:07:53;2.10;;;0.60;;
12852;SDS011;6495;51.808;7.478;2023-07-20T15:10:21;0.90;;;0.70;;
12852;SDS011;6495;51.808;7.478;2023-07-20T15:12:53;1.02;;;0.80;;
12852;SDS011;6495;51.808;7.478;2023-07-20T15:19:25;0.60;;;0.50;;
12852;SDS011;6495;51.808;7.478;2023-07-20T15:21:53;2.05;;;0.90;;
12852;SDS011;6495;51.808;7.478;2023-07-20T15:24:23;1.80;;;0.60;;
12852;SDS011;6495;51.808;7.478;2023-07-20T15:26:51;1.10;;;0.80;;
12852;SDS011;6495;51.808;7.478;2023-07-20T15:29:19;1.70;;;0.80;;
12852;SDS011;6495;51.808;7.478;2023-07-20T15:31:55;0.60;;;0.60;;
12852;SDS011;6495;51.808;7.478;2023-07-20T15:34:28;1.13;;;0.90;;
12852;SDS011;6495;51.808;7.478;2023-07-20T15:36:56;1.33;;;0.85;;
12852;SDS011;6495;51.808;7.478;2023-07-20T15:39:24;0.80;;;0.80;;